sensor_id;sensor_type;location;lat;lon;timestamp;temperature;humidity
65824;SHT31;52585;47.566;19.056;2022-08-25T00:02:04;23.29;75.21
65824;SHT31;52585;47.566;19.056;2022-08-25T00:04:32;23.29;75.19
65824;SHT31;52585;47.566;19.056;2022-08-25T00:06:59;23.28;75.16
65824;SHT31;52585;47.566;19.056;2022-08-25T00:09:28;23.27;75.08
65824;SHT31;52585;47.566;19.056;2022-08-25T00:11:56;23.29;75.06
65824;SHT31;52585;47.566;19.056;2022-08-25T00:14:24;23.26;75.07
65824;SHT31;52585;47.566;19.056;2022-08-25T00:16:57;23.25;75.07
65824;SHT31;52585;47.566;19.056;2022-08-25T00:19:25;23.23;74.97
65824;SHT31;52585;47.566;19.056;2022-08-25T00:21:56;23.22;74.99
65824;SHT31;52585;47.566;19.056;2022-08-25T00:24:23;23.21;75.04
65824;SHT31;52585;47.566;19.056;2022-08-25T00:26:50;23.19;75.09
65824;SHT31;52585;47.566;19.056;2022-08-25T00:29:21;23.18;75.08
65824;SHT31;52585;47.566;19.056;2022-08-25T00:31:50;23.17;75.09
65824;SHT31;52585;47.566;19.056;2022-08-25T00:34:19;23.16;75.18
65824;SHT31;52585;47.566;19.056;2022-08-25T00:36:52;23.16;75.10
65824;SHT31;52585;47.566;19.056;2022-08-25T00:39:18;23.16;75.07
65824;SHT31;52585;47.566;19.056;2022-08-25T00:41:51;23.14;75.02
65824;SHT31;52585;47.566;19.056;2022-08-25T00:44:22;23.13;75.01
65824;SHT31;52585;47.566;19.056;2022-08-25T00:46:51;23.11;74.91
65824;SHT31;52585;47.566;19.056;2022-08-25T00:52:44;23.06;74.84
65824;SHT31;52585;47.566;19.056;2022-08-25T00:55:27;23.04;74.91
65824;SHT31;52585;47.566;19.056;2022-08-25T01:00:41;23.04;74.97
65824;SHT31;52585;47.566;19.056;2022-08-25T01:03:12;23.03;74.90
65824;SHT31;52585;47.566;19.056;2022-08-25T01:05:38;23.02;74.92
65824;SHT31;52585;47.566;19.056;2022-08-25T01:08:07;23.01;74.90
65824;SHT31;52585;47.566;19.056;2022-08-25T01:10:35;23.00;74.84
65824;SHT31;52585;47.566;19.056;2022-08-25T01:13:16;22.99;74.78
65824;SHT31;52585;47.566;19.056;2022-08-25T01:15:45;22.97;74.81
65824;SHT31;52585;47.566;19.056;2022-08-25T01:18:13;22.95;74.89
65824;SHT31;52585;47.566;19.056;2022-08-25T01:20:40;22.94;74.90
65824;SHT31;52585;47.566;19.056;2022-08-25T01:23:06;22.92;74.90
65824;SHT31;52585;47.566;19.056;2022-08-25T01:28:17;22.92;74.99
65824;SHT31;52585;47.566;19.056;2022-08-25T01:30:44;22.92;74.94
65824;SHT31;52585;47.566;19.056;2022-08-25T01:33:10;22.92;74.88
65824;SHT31;52585;47.566;19.056;2022-08-25T01:35:38;22.91;74.85
65824;SHT31;52585;47.566;19.056;2022-08-25T01:38:05;22.89;74.88
65824;SHT31;52585;47.566;19.056;2022-08-25T01:40:34;22.87;74.82
65824;SHT31;52585;47.566;19.056;2022-08-25T01:43:11;22.85;74.87
65824;SHT31;52585;47.566;19.056;2022-08-25T01:45:50;22.83;74.90
65824;SHT31;52585;47.566;19.056;2022-08-25T01:48:17;22.81;74.89
65824;SHT31;52585;47.566;19.056;2022-08-25T01:50:43;22.81;74.87
65824;SHT31;52585;47.566;19.056;2022-08-25T01:55:47;22.80;74.88
65824;SHT31;52585;47.566;19.056;2022-08-25T01:58:18;22.79;74.91
65824;SHT31;52585;47.566;19.056;2022-08-25T02:00:47;22.78;74.88
65824;SHT31;52585;47.566;19.056;2022-08-25T02:03:15;22.76;74.84
65824;SHT31;52585;47.566;19.056;2022-08-25T02:05:43;22.75;74.78
65824;SHT31;52585;47.566;19.056;2022-08-25T02:08:09;22.74;74.77
65824;SHT31;52585;47.566;19.056;2022-08-25T02:10:35;22.74;74.81
65824;SHT31;52585;47.566;19.056;2022-08-25T02:13:03;22.73;74.86
65824;SHT31;52585;47.566;19.056;2022-08-25T02:15:30;22.72;74.88
65824;SHT31;52585;47.566;19.056;2022-08-25T02:17:56;22.72;74.89
65824;SHT31;52585;47.566;19.056;2022-08-25T02:20:22;22.73;74.88
65824;SHT31;52585;47.566;19.056;2022-08-25T02:22:52;22.73;74.82
65824;SHT31;52585;47.566;19.056;2022-08-25T02:25:18;22.70;74.77
65824;SHT31;52585;47.566;19.056;2022-08-25T02:27:45;22.69;74.68
65824;SHT31;52585;47.566;19.056;2022-08-25T02:30:11;22.68;74.64
65824;SHT31;52585;47.566;19.056;2022-08-25T02:32:39;22.66;74.68
65824;SHT31;52585;47.566;19.056;2022-08-25T02:35:06;22.65;74.70
65824;SHT31;52585;47.566;19.056;2022-08-25T02:40:39;22.61;74.69
65824;SHT31;52585;47.566;19.056;2022-08-25T02:43:04;22.60;74.69
65824;SHT31;52585;47.566;19.056;2022-08-25T02:45:30;22.60;74.68
65824;SHT31;52585;47.566;19.056;2022-08-25T02:47:55;22.58;74.60
65824;SHT31;52585;47.566;19.056;2022-08-25T02:50:21;22.57;74.56
65824;SHT31;52585;47.566;19.056;2022-08-25T02:52:47;22.55;74.61
65824;SHT31;52585;47.566;19.056;2022-08-25T02:55:15;22.54;74.70
65824;SHT31;52585;47.566;19.056;2022-08-25T02:57:42;22.53;74.73
65824;SHT31;52585;47.566;19.056;2022-08-25T03:00:09;22.52;74.71
65824;SHT31;52585;47.566;19.056;2022-08-25T03:02:37;22.52;74.70
65824;SHT31;52585;47.566;19.056;2022-08-25T03:05:05;22.52;74.77
65824;SHT31;52585;47.566;19.056;2022-08-25T03:07:33;22.51;74.67
65824;SHT31;52585;47.566;19.056;2022-08-25T03:10:09;22.50;74.59
65824;SHT31;52585;47.566;19.056;2022-08-25T03:12:40;22.47;74.51
65824;SHT31;52585;47.566;19.056;2022-08-25T03:15:09;22.45;74.47
65824;SHT31;52585;47.566;19.056;2022-08-25T03:17:39;22.42;74.45
65824;SHT31;52585;47.566;19.056;2022-08-25T03:20:05;22.40;74.50
65824;SHT31;52585;47.566;19.056;2022-08-25T03:22:31;22.40;74.61
65824;SHT31;52585;47.566;19.056;2022-08-25T03:24:57;22.40;74.60
65824;SHT31;52585;47.566;19.056;2022-08-25T03:27:41;22.40;74.60
65824;SHT31;52585;47.566;19.056;2022-08-25T03:30:07;22.38;74.67
65824;SHT31;52585;47.566;19.056;2022-08-25T03:32:34;22.38;74.61
65824;SHT31;52585;47.566;19.056;2022-08-25T03:35:00;22.38;74.60
65824;SHT31;52585;47.566;19.056;2022-08-25T03:37:26;22.37;74.46
65824;SHT31;52585;47.566;19.056;2022-08-25T03:39:52;22.37;74.34
65824;SHT31;52585;47.566;19.056;2022-08-25T03:42:18;22.35;74.49
65824;SHT31;52585;47.566;19.056;2022-08-25T03:44:43;22.34;74.54
65824;SHT31;52585;47.566;19.056;2022-08-25T03:47:09;22.34;74.41
65824;SHT31;52585;47.566;19.056;2022-08-25T03:49:35;22.34;74.39
65824;SHT31;52585;47.566;19.056;2022-08-25T03:52:01;22.34;74.40
65824;SHT31;52585;47.566;19.056;2022-08-25T03:54:27;22.32;74.39
65824;SHT31;52585;47.566;19.056;2022-08-25T03:56:53;22.31;74.37
65824;SHT31;52585;47.566;19.056;2022-08-25T03:59:20;22.30;74.43
65824;SHT31;52585;47.566;19.056;2022-08-25T04:01:46;22.27;74.49
65824;SHT31;52585;47.566;19.056;2022-08-25T04:04:14;22.25;74.55
65824;SHT31;52585;47.566;19.056;2022-08-25T04:06:41;22.23;74.64
65824;SHT31;52585;47.566;19.056;2022-08-25T04:09:08;22.22;74.70
65824;SHT31;52585;47.566;19.056;2022-08-25T04:11:35;22.21;74.81
65824;SHT31;52585;47.566;19.056;2022-08-25T04:14:01;22.22;74.89
65824;SHT31;52585;47.566;19.056;2022-08-25T04:16:31;22.22;74.93
65824;SHT31;52585;47.566;19.056;2022-08-25T04:18:59;22.21;74.97
65824;SHT31;52585;47.566;19.056;2022-08-25T04:21:28;22.20;74.95
65824;SHT31;52585;47.566;19.056;2022-08-25T04:23:54;22.20;74.97
65824;SHT31;52585;47.566;19.056;2022-08-25T04:28:52;22.18;75.35
65824;SHT31;52585;47.566;19.056;2022-08-25T04:31:20;22.18;75.47
65824;SHT31;52585;47.566;19.056;2022-08-25T04:33:46;22.20;75.66
65824;SHT31;52585;47.566;19.056;2022-08-25T04:36:13;22.21;75.69
65824;SHT31;52585;47.566;19.056;2022-08-25T04:38:40;22.22;75.76
65824;SHT31;52585;47.566;19.056;2022-08-25T04:41:09;22.22;75.82
65824;SHT31;52585;47.566;19.056;2022-08-25T04:43:38;22.25;75.82
65824;SHT31;52585;47.566;19.056;2022-08-25T04:46:07;22.25;75.80
65824;SHT31;52585;47.566;19.056;2022-08-25T04:48:40;22.25;75.81
65824;SHT31;52585;47.566;19.056;2022-08-25T04:51:07;22.26;75.81
65824;SHT31;52585;47.566;19.056;2022-08-25T04:53:36;22.26;75.87
65824;SHT31;52585;47.566;19.056;2022-08-25T04:56:07;22.27;76.08
65824;SHT31;52585;47.566;19.056;2022-08-25T04:58:40;22.28;76.24
65824;SHT31;52585;47.566;19.056;2022-08-25T05:01:07;22.30;76.30
65824;SHT31;52585;47.566;19.056;2022-08-25T05:03:36;22.30;76.34
65824;SHT31;52585;47.566;19.056;2022-08-25T05:06:03;22.32;76.45
65824;SHT31;52585;47.566;19.056;2022-08-25T05:08:30;22.33;76.50
65824;SHT31;52585;47.566;19.056;2022-08-25T05:10:57;22.35;76.54
65824;SHT31;52585;47.566;19.056;2022-08-25T05:13:23;22.37;76.55
65824;SHT31;52585;47.566;19.056;2022-08-25T05:15:53;22.39;76.53
65824;SHT31;52585;47.566;19.056;2022-08-25T05:18:23;22.40;76.53
65824;SHT31;52585;47.566;19.056;2022-08-25T05:20:51;22.41;76.57
65824;SHT31;52585;47.566;19.056;2022-08-25T05:23:19;22.43;76.64
65824;SHT31;52585;47.566;19.056;2022-08-25T05:25:49;22.45;76.78
65824;SHT31;52585;47.566;19.056;2022-08-25T05:28:20;22.47;76.85
65824;SHT31;52585;47.566;19.056;2022-08-25T05:30:46;22.50;76.83
65824;SHT31;52585;47.566;19.056;2022-08-25T05:33:15;22.52;76.82
65824;SHT31;52585;47.566;19.056;2022-08-25T05:35:42;22.55;76.77
65824;SHT31;52585;47.566;19.056;2022-08-25T05:38:09;22.56;76.66
65824;SHT31;52585;47.566;19.056;2022-08-25T05:40:34;22.60;76.59
65824;SHT31;52585;47.566;19.056;2022-08-25T05:43:00;22.64;76.57
65824;SHT31;52585;47.566;19.056;2022-08-25T05:45:26;22.64;76.52
65824;SHT31;52585;47.566;19.056;2022-08-25T05:47:52;22.66;76.45
65824;SHT31;52585;47.566;19.056;2022-08-25T05:50:17;22.67;76.41
65824;SHT31;52585;47.566;19.056;2022-08-25T05:52:43;22.69;76.42
65824;SHT31;52585;47.566;19.056;2022-08-25T05:55:09;22.71;76.45
65824;SHT31;52585;47.566;19.056;2022-08-25T05:57:35;22.73;76.51
65824;SHT31;52585;47.566;19.056;2022-08-25T06:00:02;22.75;76.55
65824;SHT31;52585;47.566;19.056;2022-08-25T06:02:30;22.77;76.53
65824;SHT31;52585;47.566;19.056;2022-08-25T06:05:08;22.80;76.44
65824;SHT31;52585;47.566;19.056;2022-08-25T06:07:46;22.83;76.41
65824;SHT31;52585;47.566;19.056;2022-08-25T06:10:15;22.87;76.58
65824;SHT31;52585;47.566;19.056;2022-08-25T06:12:49;22.93;76.86
65824;SHT31;52585;47.566;19.056;2022-08-25T06:15:29;22.98;76.92
65824;SHT31;52585;47.566;19.056;2022-08-25T06:17:58;23.02;76.88
65824;SHT31;52585;47.566;19.056;2022-08-25T06:20:26;23.06;77.01
65824;SHT31;52585;47.566;19.056;2022-08-25T06:22:54;23.11;76.79
65824;SHT31;52585;47.566;19.056;2022-08-25T06:25:22;23.15;76.55
65824;SHT31;52585;47.566;19.056;2022-08-25T06:27:50;23.18;76.40
65824;SHT31;52585;47.566;19.056;2022-08-25T06:30:19;23.22;76.36
65824;SHT31;52585;47.566;19.056;2022-08-25T06:32:47;23.25;76.18
65824;SHT31;52585;47.566;19.056;2022-08-25T06:35:14;23.29;76.11
65824;SHT31;52585;47.566;19.056;2022-08-25T06:37:43;23.34;75.84
65824;SHT31;52585;47.566;19.056;2022-08-25T06:40:10;23.38;75.69
65824;SHT31;52585;47.566;19.056;2022-08-25T06:42:37;23.41;75.63
65824;SHT31;52585;47.566;19.056;2022-08-25T06:45:03;23.45;75.62
65824;SHT31;52585;47.566;19.056;2022-08-25T06:47:30;23.48;75.73
65824;SHT31;52585;47.566;19.056;2022-08-25T06:49:56;23.50;75.73
65824;SHT31;52585;47.566;19.056;2022-08-25T06:52:22;23.53;75.59
65824;SHT31;52585;47.566;19.056;2022-08-25T06:54:48;23.56;75.50
65824;SHT31;52585;47.566;19.056;2022-08-25T06:57:14;23.58;75.48
65824;SHT31;52585;47.566;19.056;2022-08-25T06:59:40;23.60;75.49
65824;SHT31;52585;47.566;19.056;2022-08-25T07:02:06;23.62;75.59
65824;SHT31;52585;47.566;19.056;2022-08-25T07:04:32;23.65;75.61
65824;SHT31;52585;47.566;19.056;2022-08-25T07:06:59;23.68;75.59
65824;SHT31;52585;47.566;19.056;2022-08-25T07:09:25;23.71;75.55
65824;SHT31;52585;47.566;19.056;2022-08-25T07:11:50;23.75;75.57
65824;SHT31;52585;47.566;19.056;2022-08-25T07:14:16;23.79;75.59
65824;SHT31;52585;47.566;19.056;2022-08-25T07:16:47;23.83;75.59
65824;SHT31;52585;47.566;19.056;2022-08-25T07:19:18;23.88;75.58
65824;SHT31;52585;47.566;19.056;2022-08-25T07:21:48;23.92;75.51
65824;SHT31;52585;47.566;19.056;2022-08-25T07:24:16;23.96;75.44
65824;SHT31;52585;47.566;19.056;2022-08-25T07:26:43;23.99;75.39
65824;SHT31;52585;47.566;19.056;2022-08-25T07:29:16;24.03;75.36
65824;SHT31;52585;47.566;19.056;2022-08-25T07:31:50;24.06;75.46
65824;SHT31;52585;47.566;19.056;2022-08-25T07:34:16;24.11;75.41
65824;SHT31;52585;47.566;19.056;2022-08-25T07:37:00;24.16;75.10
65824;SHT31;52585;47.566;19.056;2022-08-25T07:39:30;24.18;74.84
65824;SHT31;52585;47.566;19.056;2022-08-25T07:41:58;24.22;74.90
65824;SHT31;52585;47.566;19.056;2022-08-25T07:44:24;24.25;74.92
65824;SHT31;52585;47.566;19.056;2022-08-25T07:46:51;24.30;74.50
65824;SHT31;52585;47.566;19.056;2022-08-25T07:49:18;24.34;74.33
65824;SHT31;52585;47.566;19.056;2022-08-25T07:51:46;24.37;74.27
65824;SHT31;52585;47.566;19.056;2022-08-25T07:54:12;24.41;74.08
65824;SHT31;52585;47.566;19.056;2022-08-25T07:56:39;24.44;73.99
65824;SHT31;52585;47.566;19.056;2022-08-25T07:59:07;24.47;73.89
65824;SHT31;52585;47.566;19.056;2022-08-25T08:01:33;24.51;73.91
65824;SHT31;52585;47.566;19.056;2022-08-25T08:04:00;24.56;73.86
65824;SHT31;52585;47.566;19.056;2022-08-25T08:06:26;24.61;73.22
65824;SHT31;52585;47.566;19.056;2022-08-25T08:08:52;24.66;72.92
65824;SHT31;52585;47.566;19.056;2022-08-25T08:11:25;24.69;72.88
65824;SHT31;52585;47.566;19.056;2022-08-25T08:13:54;24.73;72.60
65824;SHT31;52585;47.566;19.056;2022-08-25T08:16:22;24.78;72.37
65824;SHT31;52585;47.566;19.056;2022-08-25T08:18:51;24.80;72.04
65824;SHT31;52585;47.566;19.056;2022-08-25T08:21:22;24.83;72.05
65824;SHT31;52585;47.566;19.056;2022-08-25T08:23:54;24.86;71.72
65824;SHT31;52585;47.566;19.056;2022-08-25T08:26:21;24.89;71.60
65824;SHT31;52585;47.566;19.056;2022-08-25T08:28:48;24.92;71.51
65824;SHT31;52585;47.566;19.056;2022-08-25T08:31:19;24.97;71.11
65824;SHT31;52585;47.566;19.056;2022-08-25T08:33:50;25.03;70.83
65824;SHT31;52585;47.566;19.056;2022-08-25T08:36:19;25.07;70.47
65824;SHT31;52585;47.566;19.056;2022-08-25T08:38:50;25.12;70.12
65824;SHT31;52585;47.566;19.056;2022-08-25T08:44:08;25.19;70.11
65824;SHT31;52585;47.566;19.056;2022-08-25T08:56:04;25.33;68.48
65824;SHT31;52585;47.566;19.056;2022-08-25T09:04:28;25.48;68.34
65824;SHT31;52585;47.566;19.056;2022-08-25T09:07:10;25.54;68.07
65824;SHT31;52585;47.566;19.056;2022-08-25T09:09:42;25.59;67.47
65824;SHT31;52585;47.566;19.056;2022-08-25T09:12:12;25.62;67.46
65824;SHT31;52585;47.566;19.056;2022-08-25T09:18:41;25.74;67.06
65824;SHT31;52585;47.566;19.056;2022-08-25T09:21:13;25.78;66.59
65824;SHT31;52585;47.566;19.056;2022-08-25T09:27:23;25.87;65.97
65824;SHT31;52585;47.566;19.056;2022-08-25T09:30:08;25.92;65.74
65824;SHT31;52585;47.566;19.056;2022-08-25T09:32:47;25.94;65.76
65824;SHT31;52585;47.566;19.056;2022-08-25T09:35:28;25.98;65.61
65824;SHT31;52585;47.566;19.056;2022-08-25T09:38:02;26.00;65.64
65824;SHT31;52585;47.566;19.056;2022-08-25T09:40:31;26.03;65.54
65824;SHT31;52585;47.566;19.056;2022-08-25T09:43:08;26.05;65.37
65824;SHT31;52585;47.566;19.056;2022-08-25T09:45:59;26.09;65.38
65824;SHT31;52585;47.566;19.056;2022-08-25T09:48:42;26.15;65.45
65824;SHT31;52585;47.566;19.056;2022-08-25T09:54:16;26.22;65.09
65824;SHT31;52585;47.566;19.056;2022-08-25T09:56:49;26.27;64.94
65824;SHT31;52585;47.566;19.056;2022-08-25T09:59:30;26.31;64.47
65824;SHT31;52585;47.566;19.056;2022-08-25T10:02:04;26.34;64.29
65824;SHT31;52585;47.566;19.056;2022-08-25T10:04:49;26.39;64.33
65824;SHT31;52585;47.566;19.056;2022-08-25T10:07:20;26.43;64.13
65824;SHT31;52585;47.566;19.056;2022-08-25T10:09:53;26.48;64.05
65824;SHT31;52585;47.566;19.056;2022-08-25T10:15:24;26.56;63.29
65824;SHT31;52585;47.566;19.056;2022-08-25T10:18:22;26.57;62.56
65824;SHT31;52585;47.566;19.056;2022-08-25T10:21:11;26.57;62.41
65824;SHT31;52585;47.566;19.056;2022-08-25T10:23:47;26.59;62.24
65824;SHT31;52585;47.566;19.056;2022-08-25T10:35:31;26.66;61.74
65824;SHT31;52585;47.566;19.056;2022-08-25T10:40:55;26.72;61.73
65824;SHT31;52585;47.566;19.056;2022-08-25T10:46:16;26.82;61.55
65824;SHT31;52585;47.566;19.056;2022-08-25T10:49:05;26.83;61.39
65824;SHT31;52585;47.566;19.056;2022-08-25T10:51:59;26.83;61.25
65824;SHT31;52585;47.566;19.056;2022-08-25T10:58:18;26.84;61.72
65824;SHT31;52585;47.566;19.056;2022-08-25T11:04:31;26.92;61.80
65824;SHT31;52585;47.566;19.056;2022-08-25T11:07:36;26.93;61.91
65824;SHT31;52585;47.566;19.056;2022-08-25T11:10:18;26.95;62.05
65824;SHT31;52585;47.566;19.056;2022-08-25T11:13:00;26.97;61.65
65824;SHT31;52585;47.566;19.056;2022-08-25T11:15:37;26.95;61.47
65824;SHT31;52585;47.566;19.056;2022-08-25T11:18:16;26.97;61.54
65824;SHT31;52585;47.566;19.056;2022-08-25T11:23:45;27.04;60.83
65824;SHT31;52585;47.566;19.056;2022-08-25T11:26:29;27.04;60.57
65824;SHT31;52585;47.566;19.056;2022-08-25T11:29:04;27.05;60.77
65824;SHT31;52585;47.566;19.056;2022-08-25T11:31:43;27.05;60.86
65824;SHT31;52585;47.566;19.056;2022-08-25T11:34:15;27.06;60.78
65824;SHT31;52585;47.566;19.056;2022-08-25T11:36:53;27.09;60.73
65824;SHT31;52585;47.566;19.056;2022-08-25T11:45:41;27.06;60.58
65824;SHT31;52585;47.566;19.056;2022-08-25T11:51:42;27.12;60.13
65824;SHT31;52585;47.566;19.056;2022-08-25T11:57:08;27.16;60.00
65824;SHT31;52585;47.566;19.056;2022-08-25T12:10:59;27.29;59.51
65824;SHT31;52585;47.566;19.056;2022-08-25T12:29:54;27.31;58.38
65824;SHT31;52585;47.566;19.056;2022-08-25T12:32:53;27.32;58.41
65824;SHT31;52585;47.566;19.056;2022-08-25T12:36:05;27.35;58.45
65824;SHT31;52585;47.566;19.056;2022-08-25T12:38:49;27.39;58.23
65824;SHT31;52585;47.566;19.056;2022-08-25T12:41:18;27.41;57.72
65824;SHT31;52585;47.566;19.056;2022-08-25T12:43:51;27.43;57.72
65824;SHT31;52585;47.566;19.056;2022-08-25T12:46:34;27.46;57.70
65824;SHT31;52585;47.566;19.056;2022-08-25T13:00:19;27.47;57.11
65824;SHT31;52585;47.566;19.056;2022-08-25T13:12:51;27.56;57.36
65824;SHT31;52585;47.566;19.056;2022-08-25T13:16:02;27.57;57.32
65824;SHT31;52585;47.566;19.056;2022-08-25T13:18:36;27.57;57.24
65824;SHT31;52585;47.566;19.056;2022-08-25T13:23:56;27.58;57.24
65824;SHT31;52585;47.566;19.056;2022-08-25T13:26:27;27.58;57.35
65824;SHT31;52585;47.566;19.056;2022-08-25T13:29:02;27.58;57.19
65824;SHT31;52585;47.566;19.056;2022-08-25T13:31:51;27.56;57.21
65824;SHT31;52585;47.566;19.056;2022-08-25T13:34:34;27.57;57.42
65824;SHT31;52585;47.566;19.056;2022-08-25T13:37:08;27.58;57.23
65824;SHT31;52585;47.566;19.056;2022-08-25T13:40:12;27.59;57.34
65824;SHT31;52585;47.566;19.056;2022-08-25T13:42:49;27.59;57.41
65824;SHT31;52585;47.566;19.056;2022-08-25T13:45:31;27.62;57.28
65824;SHT31;52585;47.566;19.056;2022-08-25T13:48:02;27.64;57.10
65824;SHT31;52585;47.566;19.056;2022-08-25T13:50:35;27.66;57.12
65824;SHT31;52585;47.566;19.056;2022-08-25T13:53:06;27.66;57.18
65824;SHT31;52585;47.566;19.056;2022-08-25T13:55:39;27.66;57.01
65824;SHT31;52585;47.566;19.056;2022-08-25T13:58:15;27.64;57.43
65824;SHT31;52585;47.566;19.056;2022-08-25T14:00:47;27.66;57.51
65824;SHT31;52585;47.566;19.056;2022-08-25T14:03:44;27.68;57.47
65824;SHT31;52585;47.566;19.056;2022-08-25T14:09:34;27.69;57.62
65824;SHT31;52585;47.566;19.056;2022-08-25T14:11:58;27.72;57.58
65824;SHT31;52585;47.566;19.056;2022-08-25T14:16:49;27.76;57.64
65824;SHT31;52585;47.566;19.056;2022-08-25T14:19:22;27.77;57.79
65824;SHT31;52585;47.566;19.056;2022-08-25T14:21:49;27.79;57.86
65824;SHT31;52585;47.566;19.056;2022-08-25T14:24:20;27.80;57.91
65824;SHT31;52585;47.566;19.056;2022-08-25T14:26:48;27.82;57.89
65824;SHT31;52585;47.566;19.056;2022-08-25T14:29:14;27.82;57.97
65824;SHT31;52585;47.566;19.056;2022-08-25T14:31:42;27.82;57.82
65824;SHT31;52585;47.566;19.056;2022-08-25T14:34:24;27.82;57.74
65824;SHT31;52585;47.566;19.056;2022-08-25T14:37:00;27.84;57.68
65824;SHT31;52585;47.566;19.056;2022-08-25T14:39:34;27.85;57.63
65824;SHT31;52585;47.566;19.056;2022-08-25T14:42:00;27.84;57.81
65824;SHT31;52585;47.566;19.056;2022-08-25T14:44:25;27.83;58.18
65824;SHT31;52585;47.566;19.056;2022-08-25T14:46:52;27.83;58.41
65824;SHT31;52585;47.566;19.056;2022-08-25T14:49:24;27.86;57.99
65824;SHT31;52585;47.566;19.056;2022-08-25T14:51:57;27.86;57.88
65824;SHT31;52585;47.566;19.056;2022-08-25T14:54:31;27.86;57.86
65824;SHT31;52585;47.566;19.056;2022-08-25T14:56:57;27.85;57.95
65824;SHT31;52585;47.566;19.056;2022-08-25T14:59:23;27.86;57.90
65824;SHT31;52585;47.566;19.056;2022-08-25T15:01:49;27.86;57.98
65824;SHT31;52585;47.566;19.056;2022-08-25T15:04:16;27.88;58.09
65824;SHT31;52585;47.566;19.056;2022-08-25T15:06:52;27.90;58.10
65824;SHT31;52585;47.566;19.056;2022-08-25T15:09:21;27.91;57.74
65824;SHT31;52585;47.566;19.056;2022-08-25T15:11:49;27.94;57.55
65824;SHT31;52585;47.566;19.056;2022-08-25T15:14:19;27.94;57.70
65824;SHT31;52585;47.566;19.056;2022-08-25T15:16:48;27.95;57.83
65824;SHT31;52585;47.566;19.056;2022-08-25T15:19:22;27.96;57.89
65824;SHT31;52585;47.566;19.056;2022-08-25T15:21:51;27.96;58.05
65824;SHT31;52585;47.566;19.056;2022-08-25T15:24:17;27.96;58.36
65824;SHT31;52585;47.566;19.056;2022-08-25T15:26:54;27.96;58.22
65824;SHT31;52585;47.566;19.056;2022-08-25T15:29:23;27.98;57.67
65824;SHT31;52585;47.566;19.056;2022-08-25T15:31:53;27.99;57.53
65824;SHT31;52585;47.566;19.056;2022-08-25T15:34:19;28.00;57.50
65824;SHT31;52585;47.566;19.056;2022-08-25T15:36:45;28.00;57.86
65824;SHT31;52585;47.566;19.056;2022-08-25T15:39:11;28.01;57.71
65824;SHT31;52585;47.566;19.056;2022-08-25T15:41:37;28.00;57.73
65824;SHT31;52585;47.566;19.056;2022-08-25T15:44:03;28.00;57.84
65824;SHT31;52585;47.566;19.056;2022-08-25T15:46:31;28.01;57.76
65824;SHT31;52585;47.566;19.056;2022-08-25T15:48:59;28.00;57.67
65824;SHT31;52585;47.566;19.056;2022-08-25T15:51:26;28.01;57.59
65824;SHT31;52585;47.566;19.056;2022-08-25T15:53:53;28.01;57.84
65824;SHT31;52585;47.566;19.056;2022-08-25T15:56:19;28.00;58.05
65824;SHT31;52585;47.566;19.056;2022-08-25T15:58:47;27.99;58.03
65824;SHT31;52585;47.566;19.056;2022-08-25T16:01:15;27.99;57.79
65824;SHT31;52585;47.566;19.056;2022-08-25T16:03:44;27.99;57.74
65824;SHT31;52585;47.566;19.056;2022-08-25T16:06:11;27.98;57.63
65824;SHT31;52585;47.566;19.056;2022-08-25T16:08:37;27.98;57.77
65824;SHT31;52585;47.566;19.056;2022-08-25T16:11:04;27.98;57.73
65824;SHT31;52585;47.566;19.056;2022-08-25T16:13:31;27.97;57.75
65824;SHT31;52585;47.566;19.056;2022-08-25T16:15:57;27.97;57.97
65824;SHT31;52585;47.566;19.056;2022-08-25T16:18:23;27.97;58.12
65824;SHT31;52585;47.566;19.056;2022-08-25T16:20:49;27.95;58.44
65824;SHT31;52585;47.566;19.056;2022-08-25T16:23:16;27.94;58.71
65824;SHT31;52585;47.566;19.056;2022-08-25T16:25:44;27.92;59.02
65824;SHT31;52585;47.566;19.056;2022-08-25T16:28:12;27.91;59.27
65824;SHT31;52585;47.566;19.056;2022-08-25T16:30:47;27.90;59.53
65824;SHT31;52585;47.566;19.056;2022-08-25T16:33:15;27.89;59.58
65824;SHT31;52585;47.566;19.056;2022-08-25T16:35:41;27.88;59.60
65824;SHT31;52585;47.566;19.056;2022-08-25T16:38:08;27.86;59.73
65824;SHT31;52585;47.566;19.056;2022-08-25T16:40:37;27.86;59.76
65824;SHT31;52585;47.566;19.056;2022-08-25T16:43:06;27.85;59.86
65824;SHT31;52585;47.566;19.056;2022-08-25T16:45:34;27.84;60.02
65824;SHT31;52585;47.566;19.056;2022-08-25T16:48:00;27.84;60.26
65824;SHT31;52585;47.566;19.056;2022-08-25T16:50:29;27.84;60.60
65824;SHT31;52585;47.566;19.056;2022-08-25T16:52:56;27.81;60.65
65824;SHT31;52585;47.566;19.056;2022-08-25T16:55:41;27.80;60.84
65824;SHT31;52585;47.566;19.056;2022-08-25T16:58:08;27.78;61.08
65824;SHT31;52585;47.566;19.056;2022-08-25T17:00:35;27.77;61.14
65824;SHT31;52585;47.566;19.056;2022-08-25T17:03:02;27.75;61.30
65824;SHT31;52585;47.566;19.056;2022-08-25T17:05:30;27.74;60.66
65824;SHT31;52585;47.566;19.056;2022-08-25T17:08:02;27.71;60.78
65824;SHT31;52585;47.566;19.056;2022-08-25T17:10:46;27.69;61.29
65824;SHT31;52585;47.566;19.056;2022-08-25T17:13:12;27.67;61.43
65824;SHT31;52585;47.566;19.056;2022-08-25T17:15:42;27.66;61.51
65824;SHT31;52585;47.566;19.056;2022-08-25T17:18:12;27.64;61.75
65824;SHT31;52585;47.566;19.056;2022-08-25T17:20:39;27.63;61.93
65824;SHT31;52585;47.566;19.056;2022-08-25T17:23:09;27.61;62.08
65824;SHT31;52585;47.566;19.056;2022-08-25T17:25:35;27.60;62.17
65824;SHT31;52585;47.566;19.056;2022-08-25T17:28:02;27.58;62.25
65824;SHT31;52585;47.566;19.056;2022-08-25T17:30:29;27.57;62.26
65824;SHT31;52585;47.566;19.056;2022-08-25T17:32:56;27.56;62.32
65824;SHT31;52585;47.566;19.056;2022-08-25T17:35:22;27.54;62.42
65824;SHT31;52585;47.566;19.056;2022-08-25T17:37:48;27.53;62.50
65824;SHT31;52585;47.566;19.056;2022-08-25T17:40:13;27.51;62.58
65824;SHT31;52585;47.566;19.056;2022-08-25T17:42:39;27.50;62.74
65824;SHT31;52585;47.566;19.056;2022-08-25T17:45:05;27.50;62.83
65824;SHT31;52585;47.566;19.056;2022-08-25T17:47:31;27.50;62.87
65824;SHT31;52585;47.566;19.056;2022-08-25T17:49:57;27.51;62.85
65824;SHT31;52585;47.566;19.056;2022-08-25T17:52:22;27.52;62.80
65824;SHT31;52585;47.566;19.056;2022-08-25T17:54:48;27.53;62.84
65824;SHT31;52585;47.566;19.056;2022-08-25T17:57:14;27.54;62.93
65824;SHT31;52585;47.566;19.056;2022-08-25T17:59:40;27.54;63.11